Time;durP1;ratioP1;P1;durP2;ratioP2;P2;SDS_P1;SDS_P2;PMS_P1;PMS_P2;Temp;Humidity;BMP_temperature;BMP_pressure;BME280_temperature;BME280_humidity;BME280_pressure;Samples;Min_cycle;Max_cycle;Signal;HPM_P1;HPM_P2
2022/03/07 00:00:58;;;;;;;17.27;8.60;;;;;;;-0.09;57.22;96989.56;2068139;28;20205;-60
2022/03/07 00:02:00;;;;;;;14.20;8.20;;;;;;;-0.18;57.36;96978.59;2068261;28;20204;-61
2022/03/07 00:03:03;;;;;;;13.95;8.65;;;;;;;-0.06;57.03;96986.06;2070256;28;20295;-60
2022/03/07 00:04:05;;;;;;;12.30;8.13;;;;;;;-0.23;57.11;96966.69;2069963;28;20244;-60
2022/03/07 00:05:07;;;;;;;14.75;8.23;;;;;;;-0.08;56.87;96983.56;2065535;28;20238;-60
2022/03/07 00:06:08;;;;;;;12.55;8.25;;;;;;;-0.03;57.12;96983.44;2071260;28;20202;-60
2022/03/07 00:07:10;;;;;;;16.10;9.05;;;;;;;-0.13;57.15;96987.94;2070928;28;20230;-60
2022/03/07 00:08:11;;;;;;;12.18;7.78;;;;;;;-0.09;57.54;96989.56;2067980;28;20213;-60
2022/03/07 00:09:32;;;;;;;13.23;7.68;;;;;;;-0.12;57.51;96984.47;2068305;28;20699;-60
2022/03/07 00:10:34;;;;;;;16.02;8.75;;;;;;;-0.09;57.39;96988.72;2066619;28;20244;-60
2022/03/07 00:11:35;;;;;;;15.55;9.27;;;;;;;-0.24;57.55;96964.13;2070124;28;20201;-60
2022/03/07 00:12:37;;;;;;;15.35;8.35;;;;;;;-0.12;57.78;96993.94;2068399;28;20213;-60
2022/03/07 00:13:38;;;;;;;12.80;8.88;;;;;;;-0.11;57.69;96991.31;2068143;28;20202;-60
2022/03/07 00:14:40;;;;;;;12.38;7.88;;;;;;;-0.02;57.45;96993.72;2068223;28;20198;-60
2022/03/07 00:15:41;;;;;;;11.27;7.82;;;;;;;-0.11;57.96;96993.91;2066350;28;20811;-60
2022/03/07 00:16:44;;;;;;;17.63;8.40;;;;;;;-0.20;58.00;96991.50;2066703;28;20220;-60
2022/03/07 00:17:46;;;;;;;14.32;7.88;;;;;;;-0.28;58.17;96985.66;2068506;28;20209;-61
2022/03/07 00:18:47;;;;;;;9.48;7.53;;;;;;;-0.22;58.17;96990.69;2065938;28;20201;-60
2022/03/07 00:19:48;;;;;;;17.63;8.75;;;;;;;-0.23;58.31;96989.84;2067224;28;20205;-60
2022/03/07 00:20:50;;;;;;;15.77;7.85;;;;;;;-0.16;58.23;96992.28;2067144;28;20544;-60
2022/03/07 00:21:51;;;;;;;12.43;7.90;;;;;;;-0.17;58.58;96986.31;2068902;28;20206;-60
2022/03/07 00:22:53;;;;;;;12.98;8.02;;;;;;;-0.37;58.69;96988.41;2067766;28;20203;-60
2022/03/07 00:23:54;;;;;;;13.60;8.52;;;;;;;-0.26;58.60;96992.47;2069248;28;20198;-61
2022/03/07 00:24:56;;;;;;;11.10;8.18;;;;;;;-0.22;58.51;96988.97;2067751;28;20642;-59
2022/03/07 00:25:57;;;;;;;12.32;7.90;;;;;;;-0.24;58.68;96980.41;2067922;28;20216;-60
2022/03/07 00:26:59;;;;;;;14.95;8.40;;;;;;;-0.13;58.39;96987.94;2067398;28;20207;-60
2022/03/07 00:28:00;;;;;;;11.98;8.10;;;;;;;-0.09;57.96;96983.56;2067413;28;20504;-61
2022/03/07 00:29:02;;;;;;;12.13;7.72;;;;;;;-0.41;58.80;96992.78;2069455;28;20199;-60
2022/03/07 00:30:05;;;;;;;13.30;8.30;;;;;;;-0.34;59.16;96989.19;2068451;28;20252;-60
2022/03/07 00:31:07;;;;;;;13.00;7.55;;;;;;;-0.40;59.13;96984.19;2064658;28;20201;-60
2022/03/07 00:32:09;;;;;;;14.65;8.98;;;;;;;-0.33;59.16;96990.91;2068150;28;20194;-60
2022/03/07 00:33:13;;;;;;;13.18;9.57;;;;;;;-0.29;59.09;96986.56;2069332;28;20677;-60
2022/03/07 00:34:15;;;;;;;12.32;7.22;;;;;;;-0.29;59.08;96996.84;2067013;28;20264;-61
2022/03/07 00:35:16;;;;;;;12.57;7.13;;;;;;;-0.27;59.13;96985.63;2067453;28;20229;-60
2022/03/07 00:36:21;;;;;;;13.82;7.78;;;;;;;-0.31;59.01;96991.72;2067290;28;20194;-60
2022/03/07 00:37:23;;;;;;;20.08;9.68;;;;;;;-0.36;59.13;96995.25;2068905;28;20201;-61
2022/03/07 00:38:25;;;;;;;13.80;8.32;;;;;;;-0.36;59.15;96983.25;2068006;28;20226;-61
2022/03/07 00:39:27;;;;;;;13.18;9.00;;;;;;;-0.30;58.97;96995.13;2069244;28;20555;-60
2022/03/07 00:40:28;;;;;;;13.80;7.85;;;;;;;-0.29;59.14;96989.13;2067491;28;20599;-60
2022/03/07 00:41:30;;;;;;;15.55;8.93;;;;;;;-0.28;58.98;96989.06;2067761;28;20195;-60
2022/03/07 00:42:32;;;;;;;18.92;8.27;;;;;;;-0.28;58.91;96993.38;2068207;28;20190;-60
2022/03/07 00:43:33;;;;;;;16.15;8.02;;;;;;;-0.33;59.26;96992.63;2066257;28;20208;-61
2022/03/07 00:44:35;;;;;;;11.52;8.25;;;;;;;-0.36;59.47;96993.53;2066553;28;20201;-60
2022/03/07 00:45:36;;;;;;;16.05;8.50;;;;;;;-0.37;59.08;96996.13;2068559;28;20950;-60
2022/03/07 00:46:38;;;;;;;13.30;8.07;;;;;;;-0.29;58.75;96992.53;2071291;28;20572;-60
2022/03/07 00:47:40;;;;;;;14.05;8.32;;;;;;;-0.34;58.39;96996.94;2070737;28;20334;-60
2022/03/07 00:48:44;;;;;;;12.40;7.72;;;;;;;-0.47;58.41;96993.75;2067809;28;20211;-60
2022/03/07 00:49:45;;;;;;;10.40;6.93;;;;;;;-0.45;58.84;96994.56;2067651;28;20198;-60
2022/03/07 00:50:49;;;;;;;13.52;8.45;;;;;;;-0.41;58.75;96995.38;2068631;28;20195;-60
2022/03/07 00:51:50;;;;;;;11.18;7.88;;;;;;;-0.46;59.01;96997.16;2067998;28;20198;-61
2022/03/07 00:52:52;;;;;;;12.10;8.45;;;;;;;-0.46;59.00;96992.84;2069429;28;20269;-60
2022/03/07 00:53:53;;;;;;;13.55;8.82;;;;;;;-0.53;59.72;96990.44;2069459;28;20204;-60
2022/03/07 00:54:54;;;;;;;13.98;8.75;;;;;;;-0.49;59.48;96994.63;2067431;28;20202;-60
2022/03/07 00:55:56;;;;;;;16.48;8.15;;;;;;;-0.45;59.50;96998.84;2069542;28;20198;-60
2022/03/07 00:57:03;;;;;;;13.27;8.50;;;;;;;-0.45;59.33;96997.13;2068271;28;20702;-60
2022/03/07 00:58:05;;;;;;;14.02;7.63;;;;;;;-0.46;59.28;96994.59;2064701;28;20195;-60
2022/03/07 00:59:07;;;;;;;13.85;8.23;;;;;;;-0.51;59.58;96993.81;2069447;28;20198;-60
2022/03/07 01:00:09;;;;;;;14.80;7.53;;;;;;;-0.50;59.63;96998.09;2069425;28;20252;-60
2022/03/07 01:01:10;;;;;;;10.27;6.80;;;;;;;-0.56;59.40;96993.06;2068952;28;20224;-60
2022/03/07 01:02:12;;;;;;;14.00;8.50;;;;;;;-0.44;59.30;96992.84;2070298;28;20210;-61
2022/03/07 01:03:16;;;;;;;13.77;7.97;;;;;;;-0.55;59.48;96990.44;2069094;28;20225;-61
2022/03/07 01:04:17;;;;;;;11.73;7.70;;;;;;;-0.57;59.77;96996.50;2069012;28;20198;-60
2022/03/07 01:05:19;;;;;;;14.30;7.45;;;;;;;-0.49;59.45;97002.34;2067061;28;20257;-61
2022/03/07 01:06:20;;;;;;;15.05;8.35;;;;;;;-0.52;59.84;96989.56;2066828;28;20743;-61
2022/03/07 01:07:22;;;;;;;19.95;7.60;;;;;;;-0.58;59.24;96992.25;2072119;28;20208;-60
2022/03/07 01:08:26;;;;;;;12.20;7.50;;;;;;;-0.60;59.10;96984.56;2070368;28;20202;-61
2022/03/07 01:09:27;;;;;;;10.07;7.15;;;;;;;-0.60;59.29;96987.97;2069677;28;20244;-61
2022/03/07 01:10:29;;;;;;;14.20;8.25;;;;;;;-0.57;59.28;96986.22;2069497;28;20594;-60
2022/03/07 01:11:30;;;;;;;18.92;7.20;;;;;;;-0.53;58.97;96993.00;2069236;28;20200;-60
2022/03/07 01:12:32;;;;;;;12.05;6.90;;;;;;;-0.56;58.72;96993.91;2069942;28;20201;-60
2022/03/07 01:13:33;;;;;;;13.57;6.88;;;;;;;-0.58;58.97;96989.69;2068401;28;20203;-60
2022/03/07 01:14:35;;;;;;;12.90;8.00;;;;;;;-0.62;59.03;96994.88;2071967;28;20203;-61
2022/03/07 01:15:36;;;;;;;11.95;7.00;;;;;;;-0.71;58.87;96991.63;2068640;28;20224;-60
2022/03/07 01:16:38;;;;;;;11.13;7.35;;;;;;;-0.73;58.87;96993.38;2069588;28;20259;-60
2022/03/07 01:17:40;;;;;;;13.10;6.95;;;;;;;-0.68;59.15;96983.84;2070120;28;20276;-60
2022/03/07 01:18:43;;;;;;;11.43;7.47;;;;;;;-0.71;58.75;96996.75;2067514;28;20225;-60
2022/03/07 01:19:44;;;;;;;13.07;7.90;;;;;;;-0.69;59.00;96993.28;2066507;28;20198;-61
2022/03/07 01:20:46;;;;;;;10.07;6.55;;;;;;;-0.74;59.01;96987.38;2069881;28;20203;-60
2022/03/07 01:21:47;;;;;;;11.98;7.20;;;;;;;-0.74;59.56;96994.25;2069107;28;20699;-61
2022/03/07 01:22:49;;;;;;;13.32;7.97;;;;;;;-0.73;59.57;96988.22;2070493;28;20198;-60
2022/03/07 01:23:50;;;;;;;14.70;7.15;;;;;;;-0.72;59.42;96990.78;2069812;28;20203;-60
2022/03/07 01:24:54;;;;;;;13.20;8.60;;;;;;;-0.67;59.39;96991.53;2069541;28;20199;-60
2022/03/07 01:25:55;;;;;;;13.00;7.55;;;;;;;-0.67;58.93;96990.69;2067406;28;20207;-61
2022/03/07 01:26:57;;;;;;;15.65;7.40;;;;;;;-0.78;59.22;96996.03;2069075;28;20554;-61
2022/03/07 01:27:59;;;;;;;12.10;7.13;;;;;;;-0.80;59.88;96985.75;2070305;28;20206;-61
2022/03/07 01:29:01;;;;;;;13.60;8.15;;;;;;;-0.77;59.56;96986.59;2069458;28;20205;-60
2022/03/07 01:30:03;;;;;;;15.05;7.50;;;;;;;-0.72;59.68;96985.63;2070355;28;20575;-60
2022/03/07 01:31:07;;;;;;;11.63;7.45;;;;;;;-0.74;59.63;96994.25;2070247;28;20204;-60
2022/03/07 01:32:09;;;;;;;10.80;7.28;;;;;;;-0.70;59.53;96989.03;2070325;28;20226;-61
2022/03/07 01:33:10;;;;;;;10.60;7.80;;;;;;;-0.75;59.50;96993.38;2069716;28;20254;-60
2022/03/07 01:34:13;;;;;;;13.45;7.63;;;;;;;-0.72;59.70;96990.78;2069202;28;20242;-61
2022/03/07 01:35:14;;;;;;;13.10;7.55;;;;;;;-0.70;59.63;96999.31;2067952;28;20224;-60
2022/03/07 01:36:16;;;;;;;12.50;8.38;;;;;;;-0.67;59.30;96988.94;2067858;28;20200;-60
2022/03/07 01:37:17;;;;;;;13.27;7.60;;;;;;;-0.66;59.63;96990.66;2070858;28;20209;-60
2022/03/07 01:38:19;;;;;;;13.10;7.45;;;;;;;-0.57;59.80;96988.78;2070165;28;20579;-60
2022/03/07 01:39:20;;;;;;;12.60;8.43;;;;;;;-0.58;59.75;96989.69;2067828;28;20201;-60
2022/03/07 01:40:22;;;;;;;10.07;7.07;;;;;;;-0.84;60.31;96991.00;2068906;28;20227;-60
2022/03/07 01:41:23;;;;;;;10.65;7.40;;;;;;;-0.86;60.75;96988.44;2070854;28;20204;-60
2022/03/07 01:42:25;;;;;;;15.13;7.97;;;;;;;-0.88;60.75;96981.59;2068647;28;20197;-60
2022/03/07 01:43:27;;;;;;;9.57;7.22;;;;;;;-0.93;60.15;96983.44;2068737;28;20195;-60
2022/03/07 01:44:29;;;;;;;11.23;6.97;;;;;;;-0.90;60.01;96983.34;2069074;28;20244;-60
2022/03/07 01:45:31;;;;;;;9.30;6.75;;;;;;;-0.88;59.66;96989.31;2070220;28;20646;-60
2022/03/07 01:46:33;;;;;;;10.05;6.40;;;;;;;-0.93;59.31;96989.41;2069501;28;20204;-60
2022/03/07 01:47:35;;;;;;;13.30;6.85;;;;;;;-0.89;59.10;96987.66;2069887;28;20207;-61
2022/03/07 01:48:38;;;;;;;10.15;6.65;;;;;;;-0.92;58.45;96982.53;2068887;28;20200;-61
2022/03/07 01:49:40;;;;;;;8.85;6.65;;;;;;;-1.09;58.03;96985.41;2069356;28;20201;-60
2022/03/07 01:50:42;;;;;;;11.52;6.22;;;;;;;-1.13;58.58;96974.31;2070302;28;20656;-60
2022/03/07 01:51:45;;;;;;;12.00;6.28;;;;;;;-1.14;58.12;96985.47;2068736;28;20208;-60
2022/03/07 01:52:50;;;;;;;7.70;5.85;;;;;;;-1.06;57.60;96975.94;2069689;28;20196;-60
2022/03/07 01:53:52;;;;;;;12.88;6.57;;;;;;;-1.15;57.61;96978.66;2070001;28;20199;-61
2022/03/07 01:54:54;;;;;;;8.43;5.47;;;;;;;-1.09;57.66;96978.53;2070390;28;20653;-60
2022/03/07 01:55:56;;;;;;;12.02;6.22;;;;;;;-1.18;58.07;96978.69;2068703;28;20196;-60
2022/03/07 01:56:57;;;;;;;9.68;6.35;;;;;;;-1.21;57.64;96977.03;2069237;28;20208;-60
2022/03/07 01:57:59;;;;;;;9.18;5.68;;;;;;;-1.19;57.71;96977.00;2068466;28;20200;-61
2022/03/07 01:59:04;;;;;;;11.15;6.57;;;;;;;-1.31;57.47;96972.06;2067987;28;20207;-60
2022/03/07 02:00:09;;;;;;;10.82;6.72;;;;;;;-1.36;57.47;96973.84;2071058;28;20687;-60
2022/03/07 02:01:11;;;;;;;10.18;6.03;;;;;;;-1.26;57.47;96970.25;2065888;28;20203;-60
2022/03/07 02:02:13;;;;;;;9.95;6.15;;;;;;;-1.17;56.99;96979.56;2067594;28;20212;-60
2022/03/07 02:03:15;;;;;;;8.85;5.57;;;;;;;-1.14;57.10;96982.91;2070248;28;20191;-60
2022/03/07 02:04:17;;;;;;;9.18;4.75;;;;;;;-1.15;56.60;96977.81;2065849;28;20862;-60
2022/03/07 02:05:19;;;;;;;10.25;5.80;;;;;;;-1.16;56.93;96969.22;2067948;28;20226;-60
2022/03/07 02:06:21;;;;;;;9.25;5.57;;;;;;;-1.13;56.76;96970.91;2068735;28;20795;-60
2022/03/07 02:07:23;;;;;;;9.13;5.80;;;;;;;-1.17;57.24;96972.69;2070117;28;20206;-61
2022/03/07 02:08:25;;;;;;;12.13;5.75;;;;;;;-1.18;56.98;96970.13;2069491;28;20196;-60
2022/03/07 02:09:27;;;;;;;10.57;6.93;;;;;;;-1.20;57.07;96971.03;2067575;28;20228;-60
2022/03/07 02:10:28;;;;;;;11.15;6.00;;;;;;;-1.16;57.18;96963.25;2067810;28;20230;-61
2022/03/07 02:11:31;;;;;;;9.82;5.70;;;;;;;-1.23;57.11;96970.22;2065724;28;20243;-60
2022/03/07 02:12:33;;;;;;;8.48;5.97;;;;;;;-1.23;57.21;96965.91;2069213;28;20211;-61
2022/03/07 02:13:35;;;;;;;9.70;6.03;;;;;;;-1.24;56.99;96963.38;2068476;28;20199;-61
2022/03/07 02:14:37;;;;;;;10.07;6.18;;;;;;;-1.26;57.28;96959.97;2068955;28;20204;-60
2022/03/07 02:15:38;;;;;;;9.20;5.43;;;;;;;-1.29;57.53;96966.03;2067066;28;20238;-60
2022/03/07 02:16:41;;;;;;;9.35;5.70;;;;;;;-1.31;57.56;96962.63;2071912;28;20200;-60
2022/03/07 02:17:45;;;;;;;11.32;6.18;;;;;;;-1.42;57.62;96952.50;2067916;28;20204;-60
2022/03/07 02:18:47;;;;;;;7.07;5.10;;;;;;;-1.38;58.09;96960.19;2068582;28;20200;-60
2022/03/07 02:19:49;;;;;;;11.20;6.65;;;;;;;-1.40;57.95;96955.91;2068367;28;20255;-61
2022/03/07 02:21:04;;;;;;;14.98;5.93;;;;;;;-1.43;58.28;96955.09;2067189;28;20211;-60
2022/03/07 02:22:06;;;;;;;12.85;5.93;;;;;;;-1.47;58.44;96958.59;2067864;28;20815;-60
2022/03/07 02:23:10;;;;;;;11.18;5.60;;;;;;;-1.50;59.13;96946.63;2067082;28;20211;-60
2022/03/07 02:24:13;;;;;;;9.00;5.47;;;;;;;-1.61;59.10;96935.69;2067216;28;20198;-60
2022/03/07 02:25:15;;;;;;;7.57;5.68;;;;;;;-1.55;59.15;96945.00;2070183;28;20722;-60
2022/03/07 02:26:18;;;;;;;8.77;6.07;;;;;;;-1.59;59.45;96946.78;2070893;28;20194;-60
2022/03/07 02:27:19;;;;;;;9.75;6.50;;;;;;;-1.58;59.45;96945.91;2068660;28;20588;-60
2022/03/07 02:28:21;;;;;;;11.25;6.35;;;;;;;-1.56;59.36;96951.03;2069119;28;20700;-60
2022/03/07 02:29:22;;;;;;;10.32;5.97;;;;;;;-1.57;59.55;96945.03;2066546;28;20194;-60
2022/03/07 02:30:23;;;;;;;8.52;6.00;;;;;;;-1.67;59.77;96939.19;2068358;28;20703;-61
2022/03/07 02:31:25;;;;;;;10.82;5.72;;;;;;;-1.69;60.03;96940.09;2067819;28;20221;-60
2022/03/07 02:32:27;;;;;;;9.80;7.00;;;;;;;-1.80;60.34;96935.97;2067194;28;20197;-60
2022/03/07 02:33:28;;;;;;;9.10;6.43;;;;;;;-1.81;60.29;96947.09;2068445;28;20195;-60
2022/03/07 02:34:30;;;;;;;11.18;6.10;;;;;;;-1.87;60.53;96930.94;2068855;28;20197;-61
2022/03/07 02:35:31;;;;;;;7.75;5.55;;;;;;;-1.86;60.31;96943.75;2068024;28;20755;-60
2022/03/07 02:36:33;;;;;;;8.85;6.25;;;;;;;-1.89;60.09;96945.50;2068726;28;20222;-60
2022/03/07 02:37:34;;;;;;;12.27;6.53;;;;;;;-1.93;60.62;96946.44;2070132;28;20202;-60
2022/03/07 02:38:36;;;;;;;9.60;5.85;;;;;;;-1.91;60.06;96947.25;2068842;28;20199;-60
2022/03/07 02:39:37;;;;;;;11.77;6.30;;;;;;;-1.89;60.50;96953.22;2068250;28;20208;-60
2022/03/07 02:40:59;;;;;;;10.00;6.53;;;;;;;-2.03;60.42;96946.53;2069240;28;20258;-60
2022/03/07 02:42:00;;;;;;;11.93;5.88;;;;;;;-2.03;60.33;96954.25;2069414;28;20194;-61
2022/03/07 02:43:02;;;;;;;9.45;5.75;;;;;;;-2.03;60.52;96948.28;2069685;28;20203;-60
2022/03/07 02:44:04;;;;;;;10.60;6.38;;;;;;;-2.00;60.43;96951.66;2071003;28;20199;-60
2022/03/07 02:45:06;;;;;;;8.25;5.57;;;;;;;-1.98;60.49;96954.16;2069960;28;20226;-61
2022/03/07 02:46:08;;;;;;;8.30;5.97;;;;;;;-2.01;60.17;96951.66;2068867;28;20857;-60
2022/03/07 02:47:14;;;;;;;10.50;5.60;;;;;;;-1.96;59.75;96952.47;2068616;28;20199;-60
2022/03/07 02:48:18;;;;;;;8.48;5.72;;;;;;;-2.02;60.40;96952.53;2068987;28;20190;-60
2022/03/07 02:49:19;;;;;;;10.90;6.18;;;;;;;-2.04;60.13;96954.25;2067508;28;20216;-60
2022/03/07 02:50:21;;;;;;;7.72;5.78;;;;;;;-2.01;60.43;96949.09;2068657;28;20225;-60
2022/03/07 02:51:22;;;;;;;10.73;6.40;;;;;;;-2.15;60.58;96945.88;2070811;28;20203;-60
2022/03/07 02:52:24;;;;;;;9.77;5.60;;;;;;;-2.19;60.42;96947.63;2067506;28;20198;-60
2022/03/07 02:53:26;;;;;;;8.70;5.70;;;;;;;-2.22;60.34;96933.09;2068679;28;20708;-60
2022/03/07 02:54:28;;;;;;;12.73;5.82;;;;;;;-2.20;60.48;96944.19;2067907;28;20194;-60
2022/03/07 02:55:31;;;;;;;7.82;5.53;;;;;;;-2.20;60.48;96949.31;2066587;28;20536;-60
2022/03/07 02:56:32;;;;;;;12.65;6.45;;;;;;;-2.23;60.41;96946.81;2067078;28;20623;-60
2022/03/07 02:57:34;;;;;;;10.50;6.28;;;;;;;-2.26;60.46;96946.00;2068049;28;20206;-60
2022/03/07 02:58:35;;;;;;;9.32;6.10;;;;;;;-2.25;60.24;96945.97;2068696;28;20194;-60
2022/03/07 02:59:37;;;;;;;9.13;6.25;;;;;;;-2.25;60.35;96945.97;2070226;28;20696;-60
2022/03/07 03:00:38;;;;;;;14.23;6.20;;;;;;;-2.28;60.71;96945.16;2070120;28;20217;-60
2022/03/07 03:01:40;;;;;;;10.05;6.18;;;;;;;-2.31;60.66;96948.63;2066145;28;20248;-60
2022/03/07 03:02:42;;;;;;;12.00;5.50;;;;;;;-2.38;60.54;96957.25;2067603;28;20206;-60
2022/03/07 03:03:43;;;;;;;11.15;7.00;;;;;;;-2.35;60.31;96954.66;2067392;28;20217;-60
2022/03/07 03:04:45;;;;;;;8.02;5.55;;;;;;;-2.34;60.32;96946.09;2068449;28;20199;-60
2022/03/07 03:05:46;;;;;;;9.38;6.15;;;;;;;-2.38;60.50;96945.28;2069530;28;20198;-60
2022/03/07 03:06:48;;;;;;;8.57;5.95;;;;;;;-2.45;60.30;96950.50;2068694;28;20584;-60
2022/03/07 03:07:51;;;;;;;10.85;6.40;;;;;;;-2.48;60.54;96937.72;2069782;28;20202;-60
2022/03/07 03:08:52;;;;;;;9.70;6.53;;;;;;;-2.40;60.48;96941.03;2070866;28;20201;-60
2022/03/07 03:09:55;;;;;;;9.43;6.65;;;;;;;-2.45;60.76;96937.66;2065816;28;20235;-60
2022/03/07 03:10:57;;;;;;;9.50;5.75;;;;;;;-2.62;60.92;96935.31;2068798;28;20572;-60
2022/03/07 03:11:58;;;;;;;11.18;6.10;;;;;;;-2.50;60.83;96939.47;2067629;28;20210;-60
2022/03/07 03:13:00;;;;;;;9.98;6.07;;;;;;;-2.50;60.52;96945.44;2067038;28;20297;-60
2022/03/07 03:14:02;;;;;;;14.15;8.27;;;;;;;-2.51;60.43;96940.31;2066203;28;20198;-60
2022/03/07 03:15:05;;;;;;;9.65;6.47;;;;;;;-2.43;60.26;96938.50;2066663;28;20229;-60
2022/03/07 03:16:06;;;;;;;10.55;6.00;;;;;;;-2.42;60.10;96946.19;2069997;28;20198;-60
2022/03/07 03:17:08;;;;;;;14.68;5.65;;;;;;;-2.42;60.13;96938.47;2069634;28;20195;-60
2022/03/07 03:18:10;;;;;;;13.40;6.90;;;;;;;-2.46;60.05;96946.25;2068831;28;20348;-60
2022/03/07 03:19:11;;;;;;;9.90;6.70;;;;;;;-2.49;60.45;96943.69;2068896;28;20205;-59
2022/03/07 03:20:14;;;;;;;14.40;6.43;;;;;;;-2.59;60.27;96931.00;2067451;28;20226;-60
2022/03/07 03:21:17;;;;;;;9.70;6.03;;;;;;;-2.53;59.63;96942.03;2066867;28;20248;-60
2022/03/07 03:22:19;;;;;;;10.52;6.22;;;;;;;-2.54;60.05;96948.06;2068603;28;20683;-60
2022/03/07 03:23:25;;;;;;;9.73;6.22;;;;;;;-2.55;60.14;96951.47;2070492;28;20638;-59
2022/03/07 03:24:28;;;;;;;10.05;6.93;;;;;;;-2.60;60.24;96946.41;2069615;28;20550;-60
2022/03/07 03:25:30;;;;;;;10.02;6.35;;;;;;;-2.60;60.47;96951.53;2067253;28;20229;-60
2022/03/07 03:26:31;;;;;;;12.27;7.13;;;;;;;-2.63;60.33;96955.00;2069232;28;21051;-60
2022/03/07 03:27:34;;;;;;;12.38;7.47;;;;;;;-2.65;60.08;96945.59;2068495;28;20194;-60
2022/03/07 03:28:35;;;;;;;13.30;6.70;;;;;;;-2.70;60.40;96950.78;2068741;28;20547;-60
2022/03/07 03:29:37;;;;;;;12.15;6.97;;;;;;;-2.76;60.54;96957.66;2067841;28;20198;-60
2022/03/07 03:30:38;;;;;;;10.45;6.95;;;;;;;-2.69;60.38;96961.88;2069699;28;20701;-60
2022/03/07 03:31:40;;;;;;;15.35;6.55;;;;;;;-2.72;60.08;96959.38;2068572;28;20198;-60
2022/03/07 03:32:42;;;;;;;10.75;6.30;;;;;;;-2.74;60.18;96961.94;2068803;28;20197;-60
2022/03/07 03:33:43;;;;;;;17.88;7.28;;;;;;;-2.86;60.39;96954.34;2069957;28;20198;-60
2022/03/07 03:34:45;;;;;;;14.35;7.32;;;;;;;-2.74;60.14;96954.25;2070076;28;20202;-60
2022/03/07 03:35:46;;;;;;;11.75;7.35;;;;;;;-2.70;60.33;96953.34;2068560;28;20543;-60
2022/03/07 03:36:47;;;;;;;12.30;6.22;;;;;;;-2.73;60.34;96955.94;2065890;28;20248;-59
2022/03/07 03:37:49;;;;;;;10.35;6.35;;;;;;;-2.73;60.51;96955.94;2064818;28;20681;-60
2022/03/07 03:38:50;;;;;;;9.50;7.18;;;;;;;-2.72;60.36;96961.94;2064992;28;20264;-60
2022/03/07 03:39:53;;;;;;;15.32;7.40;;;;;;;-2.76;60.45;96958.53;2065517;28;20206;-60
2022/03/07 03:40:55;;;;;;;10.23;6.53;;;;;;;-2.76;60.40;96957.66;2068162;28;20712;-60
2022/03/07 03:41:56;;;;;;;17.73;7.78;;;;;;;-2.70;60.32;96962.75;2066651;28;20547;-59
2022/03/07 03:42:57;;;;;;;17.58;6.85;;;;;;;-2.81;60.63;96956.00;2068829;28;20207;-60
2022/03/07 03:43:59;;;;;;;12.15;6.95;;;;;;;-2.83;60.30;96957.75;2068152;28;20541;-60
2022/03/07 03:45:00;;;;;;;11.55;7.40;;;;;;;-2.85;60.30;96958.63;2066745;28;20597;-60
2022/03/07 03:46:02;;;;;;;9.30;6.85;;;;;;;-2.88;60.79;96961.22;2066883;28;20247;-60
2022/03/07 03:47:04;;;;;;;9.60;6.68;;;;;;;-2.86;60.64;96962.03;2068536;28;20221;-59
2022/03/07 03:48:05;;;;;;;9.43;5.82;;;;;;;-2.83;60.79;96956.91;2068159;28;20198;-60
2022/03/07 03:49:07;;;;;;;11.80;7.18;;;;;;;-2.85;60.78;96962.03;2062606;28;20650;-60
2022/03/07 03:50:11;;;;;;;11.30;7.05;;;;;;;-2.96;61.08;96958.72;2065522;28;20575;-60
2022/03/07 03:51:12;;;;;;;11.00;6.93;;;;;;;-2.94;60.78;96963.84;2067027;28;20217;-60
2022/03/07 03:52:14;;;;;;;10.80;7.15;;;;;;;-3.00;61.28;96963.06;2067002;28;20199;-59
2022/03/07 03:53:16;;;;;;;9.75;7.03;;;;;;;-2.97;61.07;96958.75;2067928;28;20197;-59
2022/03/07 03:54:17;;;;;;;12.95;6.53;;;;;;;-2.96;61.45;96968.13;2069159;28;20651;-60
2022/03/07 03:55:18;;;;;;;9.90;6.72;;;;;;;-2.98;61.23;96963.00;2069178;28;20229;-60
2022/03/07 03:56:20;;;;;;;10.38;6.82;;;;;;;-2.99;61.37;96962.16;2068268;28;20201;-59
2022/03/07 03:57:22;;;;;;;14.82;7.50;;;;;;;-2.98;61.12;96965.56;2070412;28;20240;-60
2022/03/07 03:58:24;;;;;;;11.70;6.25;;;;;;;-3.02;61.20;96963.91;2067792;28;20198;-60
2022/03/07 03:59:25;;;;;;;15.88;7.45;;;;;;;-3.03;61.25;96960.50;2066644;28;20705;-60
2022/03/07 04:00:28;;;;;;;13.13;7.15;;;;;;;-3.03;61.34;96965.63;2066714;28;20226;-60
2022/03/07 04:01:29;;;;;;;19.55;6.55;;;;;;;-3.01;61.27;96968.19;2068661;28;20194;-60
2022/03/07 04:02:31;;;;;;;9.40;6.07;;;;;;;-3.19;61.65;96943.59;2067100;28;20673;-60
2022/03/07 04:03:33;;;;;;;11.40;6.90;;;;;;;-3.05;61.90;96969.94;2070326;28;20785;-60
2022/03/07 04:04:34;;;;;;;9.30;6.10;;;;;;;-3.04;61.35;96963.06;2066960;28;20553;-59
2022/03/07 04:05:36;;;;;;;9.13;6.45;;;;;;;-3.09;61.64;96965.69;2067778;28;20221;-60
2022/03/07 04:06:38;;;;;;;10.95;6.70;;;;;;;-3.12;61.75;96965.72;2068663;28;20545;-60
2022/03/07 04:07:40;;;;;;;11.50;6.30;;;;;;;-3.12;61.89;96959.75;2068320;28;20205;-60
2022/03/07 04:09:00;;;;;;;12.20;7.20;;;;;;;-3.11;61.81;96967.41;2067974;28;20211;-60
2022/03/07 04:10:02;;;;;;;13.85;7.45;;;;;;;-3.11;61.80;96964.03;2066786;28;20239;-59
2022/03/07 04:11:03;;;;;;;12.23;6.90;;;;;;;-3.16;62.06;96964.03;2069020;28;20209;-60
2022/03/07 04:12:05;;;;;;;10.90;6.55;;;;;;;-3.22;62.06;96964.09;2069087;28;20211;-60
2022/03/07 04:13:07;;;;;;;11.20;7.38;;;;;;;-3.24;62.38;96961.53;2069499;28;20546;-60
2022/03/07 04:14:08;;;;;;;11.57;6.40;;;;;;;-3.21;62.75;96965.81;2069917;28;20240;-59
2022/03/07 04:15:10;;;;;;;10.45;6.38;;;;;;;-3.26;62.63;96963.25;2069512;28;20222;-59
2022/03/07 04:16:12;;;;;;;17.83;6.72;;;;;;;-3.26;62.40;96960.69;2068792;28;20198;-60
2022/03/07 04:17:14;;;;;;;9.02;6.13;;;;;;;-3.25;62.65;96961.56;2066727;28;20207;-60
2022/03/07 04:18:15;;;;;;;8.73;5.50;;;;;;;-3.27;62.80;96963.31;2068232;28;20203;-59
2022/03/07 04:19:17;;;;;;;14.48;6.22;;;;;;;-3.29;62.85;96958.19;2070357;28;20195;-60
2022/03/07 04:20:18;;;;;;;9.07;6.53;;;;;;;-3.25;62.73;96959.84;2069205;28;20688;-59
2022/03/07 04:21:20;;;;;;;10.93;7.43;;;;;;;-3.26;62.79;96963.25;2070661;28;20277;-59
2022/03/07 04:22:22;;;;;;;11.30;6.05;;;;;;;-3.35;63.01;96957.38;2070000;28;21011;-59
2022/03/07 04:23:24;;;;;;;10.85;7.05;;;;;;;-3.41;63.33;96964.25;2067737;28;20199;-60
2022/03/07 04:24:27;;;;;;;8.73;6.20;;;;;;;-3.34;63.32;96966.78;2067526;28;20186;-60
2022/03/07 04:25:29;;;;;;;13.48;7.20;;;;;;;-3.41;63.35;96969.38;2068759;28;20226;-59
2022/03/07 04:26:31;;;;;;;13.45;6.75;;;;;;;-3.40;63.42;96962.53;2068244;28;20197;-60
2022/03/07 04:27:32;;;;;;;9.38;5.63;;;;;;;-3.44;63.33;96966.81;2066813;28;20202;-60
2022/03/07 04:28:34;;;;;;;11.38;6.32;;;;;;;-3.51;63.62;96965.16;2069066;28;20214;-60
2022/03/07 04:29:35;;;;;;;12.68;6.35;;;;;;;-3.57;63.77;96960.09;2068499;28;20202;-60
2022/03/07 04:30:37;;;;;;;12.40;6.57;;;;;;;-3.59;63.96;96965.25;2067932;28;20822;-60
2022/03/07 04:31:41;;;;;;;9.80;6.75;;;;;;;-3.56;63.78;96966.94;2068282;28;20747;-60
2022/03/07 04:32:42;;;;;;;11.13;6.45;;;;;;;-3.57;63.58;96962.66;2066678;28;20814;-60
2022/03/07 04:33:44;;;;;;;11.20;6.78;;;;;;;-3.51;63.29;96964.31;2069814;28;20382;-59
2022/03/07 04:34:46;;;;;;;9.35;6.43;;;;;;;-3.54;63.45;96967.75;2067026;28;20817;-60
2022/03/07 04:35:47;;;;;;;12.93;7.05;;;;;;;-3.61;63.28;96960.97;2068774;28;20525;-60
2022/03/07 04:36:49;;;;;;;12.45;7.88;;;;;;;-3.58;63.37;96971.22;2067623;28;20201;-60
2022/03/07 04:37:50;;;;;;;10.90;6.47;;;;;;;-3.57;63.14;96965.22;2068104;28;20203;-60
2022/03/07 04:38:52;;;;;;;12.05;7.32;;;;;;;-3.61;63.26;96973.78;2070101;28;20209;-59
2022/03/07 04:39:54;;;;;;;9.32;6.43;;;;;;;-3.59;63.05;96969.50;2070417;28;20206;-59
2022/03/07 04:40:55;;;;;;;12.32;7.22;;;;;;;-3.59;63.02;96974.63;2068957;28;20217;-60
2022/03/07 04:41:57;;;;;;;13.70;8.23;;;;;;;-3.61;62.94;96973.78;2068477;28;20202;-61
2022/03/07 04:43:01;;;;;;;11.32;7.15;;;;;;;-3.53;62.96;96979.69;2067994;28;20567;-59
2022/03/07 04:44:03;;;;;;;12.77;7.20;;;;;;;-3.58;62.80;96981.44;2067517;28;20573;-60
2022/03/07 04:45:05;;;;;;;12.20;7.75;;;;;;;-3.55;62.67;96978.00;2066287;28;20221;-60
2022/03/07 04:46:07;;;;;;;11.80;6.60;;;;;;;-3.55;62.80;96978.00;2068982;28;20548;-59
2022/03/07 04:47:09;;;;;;;8.90;7.00;;;;;;;-3.62;62.75;96980.63;2068051;28;20198;-59
2022/03/07 04:48:11;;;;;;;12.02;7.38;;;;;;;-3.59;62.90;96975.50;2067845;28;20194;-60
2022/03/07 04:49:12;;;;;;;8.82;6.03;;;;;;;-3.59;62.86;96984.88;2068896;28;20646;-60
2022/03/07 04:50:14;;;;;;;11.27;6.97;;;;;;;-3.53;62.51;96978.84;2066319;28;20652;-60